Haicheng, China
Current Conditions -  °F | °C
As of 12:30 PM on Sunday 26 Oct 2014 (Local Time) from ZYTX Reporting Station
Clear Clear  
Wind Chill: 11°   Ceiling: Unl
Heat Index: 11°   Visibility: 6mi
Dew Point: -18°   Wind: 16mph
Humidity: 12%   Direction: 350°N
Pressure: 30.24"   Gusts: NA
Location:  40.86°N, 122.74°E
Report Text: ZYTX 260430Z 35007MPS 310V010 CAVOK 11/M18 Q1024 NOSIG
Loading
Personal Weather Stations






























Interactive Weather Map
Tropical Storm Tracking
New forecast layout! Learn more

10-Day Weather Forecast

Advertisements
Track Severe Weather on mobile